Time;durP1;ratioP1;P1;durP2;ratioP2;P2;SDS_P1;SDS_P2;PMS_P1;PMS_P2;Temp;Humidity;BMP_temperature;BMP_pressure;BME280_temperature;BME280_humidity;BME280_pressure;Samples;Min_cycle;Max_cycle;Signal;HPM_P1;HPM_P2
2021/05/14 00:05:57;;;;;;;22.20;19.88;;;13.50;90.60;;;;;;4995713;28;20049;-82
2021/05/14 00:08:42;;;;;;;22.25;19.40;;;13.40;90.70;;;;;;4993493;28;20026;-82
2021/05/14 00:11:07;;;;;;;23.17;19.83;;;13.40;90.80;;;;;;4993093;28;20031;-83
2021/05/14 00:16:36;;;;;;;21.40;18.80;;;13.50;90.90;;;;;;4994055;28;20116;-84
2021/05/14 00:19:02;;;;;;;24.23;20.40;;;13.50;90.80;;;;;;4993373;28;20041;-82
2021/05/14 00:21:29;;;;;;;23.85;20.23;;;13.50;90.90;;;;;;4992810;28;20501;-81
2021/05/14 00:24:14;;;;;;;22.65;20.30;;;13.50;91.00;;;;;;4992295;28;20026;-83
2021/05/14 00:26:39;;;;;;;21.50;19.15;;;13.50;90.90;;;;;;4993954;28;20546;-82
2021/05/14 00:32:08;;;;;;;24.52;20.77;;;13.50;91.00;;;;;;4993561;28;20063;-81
2021/05/14 00:34:52;;;;;;;23.48;20.25;;;13.50;91.00;;;;;;4993700;28;20046;-82
2021/05/14 00:37:18;;;;;;;22.90;19.92;;;13.40;90.80;;;;;;4993187;28;20038;-81
2021/05/14 00:39:44;;;;;;;22.30;19.90;;;13.40;90.90;;;;;;4993031;28;20034;-83
2021/05/14 00:42:28;;;;;;;24.45;21.52;;;13.40;90.80;;;;;;4992561;28;20029;-82
2021/05/14 00:48:16;;;;;;;30.10;25.55;;;13.40;91.20;;;;;;4995844;28;20493;-84
2021/05/14 00:51:19;;;;;;;29.25;21.75;;;13.30;91.00;;;;;;4997684;28;20098;-83
2021/05/14 00:53:44;;;;;;;29.50;24.65;;;13.30;91.10;;;;;;5002495;28;20078;-81
2021/05/14 01:01:39;;;;;;;30.40;26.27;;;13.20;91.10;;;;;;5011665;28;20102;-81
2021/05/14 01:04:05;;;;;;;29.08;25.98;;;13.20;91.20;;;;;;5016340;28;20007;-82
2021/05/14 01:06:31;;;;;;;30.92;27.63;;;13.20;91.30;;;;;;5012789;28;20025;-81
2021/05/14 01:09:17;;;;;;;30.25;26.02;;;13.10;91.20;;;;;;4996794;28;20027;-82
2021/05/14 01:12:01;;;;;;;31.42;26.80;;;13.20;91.30;;;;;;4993927;28;20030;-82
2021/05/14 01:14:27;;;;;;;32.95;27.30;;;13.10;91.40;;;;;;4992688;28;20529;-82
2021/05/14 01:19:37;;;;;;;32.72;28.63;;;13.20;91.40;;;;;;4995403;28;20117;-82
2021/05/14 01:24:47;;;;;;;34.08;29.25;;;13.20;91.40;;;;;;4998805;28;20034;-81
2021/05/14 01:30:15;;;;;;;35.10;29.30;;;13.10;91.30;;;;;;4998590;28;20040;-82
2021/05/14 01:35:45;;;;;;;37.17;30.83;;;13.10;91.40;;;;;;5000973;28;20053;-83
2021/05/14 01:38:11;;;;;;;37.85;33.00;;;13.10;91.40;;;;;;4998635;28;20038;-82
2021/05/14 01:43:39;;;;;;;39.15;33.25;;;13.10;91.50;;;;;;5001347;28;20038;-82
2021/05/14 01:46:27;;;;;;;39.35;32.15;;;13.00;91.50;;;;;;5008212;28;20015;-82
2021/05/14 01:48:54;;;;;;;39.38;32.40;;;13.00;91.50;;;;;;5017420;28;20026;-83
2021/05/14 01:51:38;;;;;;;42.95;33.45;;;13.00;91.70;;;;;;5016450;28;20041;-81
2021/05/14 01:54:23;;;;;;;41.78;34.60;;;13.00;91.70;;;;;;5002310;28;20022;-83
2021/05/14 01:57:08;;;;;;;44.28;34.38;;;13.00;91.80;;;;;;4996926;28;20030;-82
2021/05/14 01:59:34;;;;;;;42.75;31.88;;;13.00;91.70;;;;;;4995312;28;20030;-82
2021/05/14 02:01:59;;;;;;;43.25;35.78;;;12.90;92.00;;;;;;4995632;28;20114;-82
2021/05/14 02:07:09;;;;;;;45.92;35.75;;;13.00;91.70;;;;;;4996922;28;20100;-81
2021/05/14 02:09:35;;;;;;;43.38;36.30;;;12.90;91.60;;;;;;4996055;28;20026;-82
2021/05/14 02:12:00;;;;;;;44.10;35.38;;;12.90;91.60;;;;;;4994891;28;20356;-83
2021/05/14 02:14:26;;;;;;;48.97;40.05;;;12.90;91.50;;;;;;4995807;28;20030;-82
2021/05/14 02:19:39;;;;;;;46.53;36.45;;;12.80;91.60;;;;;;4996394;28;20438;-84
2021/05/14 02:22:04;;;;;;;49.10;37.67;;;12.90;91.60;;;;;;4994640;28;20027;-83
2021/05/14 02:24:31;;;;;;;47.08;36.80;;;12.80;91.50;;;;;;4994590;28;20019;-85
2021/05/14 02:27:15;;;;;;;48.15;39.38;;;12.80;91.60;;;;;;4994278;28;20077;-83
2021/05/14 02:29:41;;;;;;;46.67;37.78;;;12.90;91.60;;;;;;4995527;28;20053;-83
2021/05/14 02:32:25;;;;;;;50.88;39.97;;;12.80;91.50;;;;;;4995051;28;20471;-82
2021/05/14 02:34:51;;;;;;;50.03;39.72;;;12.90;91.60;;;;;;4996455;28;20046;-81
2021/05/14 02:40:01;;;;;;;52.75;40.28;;;12.90;91.50;;;;;;4998141;28;20058;-83
2021/05/14 02:42:45;;;;;;;49.47;40.03;;;12.90;91.60;;;;;;4996145;28;20022;-83
2021/05/14 02:45:11;;;;;;;50.83;40.25;;;13.00;91.60;;;;;;4996204;28;20024;-83
2021/05/14 02:47:56;;;;;;;48.80;39.88;;;13.00;91.50;;;;;;4994879;28;20100;-83
2021/05/14 02:50:22;;;;;;;49.30;39.75;;;13.00;91.40;;;;;;4994962;28;20029;-83
2021/05/14 02:53:25;;;;;;;48.53;38.75;;;13.00;91.40;;;;;;4995050;28;20056;-83
2021/05/14 03:01:43;;;;;;;47.58;36.92;;;13.00;91.30;;;;;;5018355;28;20053;-82
2021/05/14 03:04:27;;;;;;;50.60;39.13;;;12.90;91.40;;;;;;5016658;28;20010;-83
2021/05/14 03:09:56;;;;;;;50.58;38.55;;;12.90;91.50;;;;;;5007738;28;20057;-83
2021/05/14 03:12:25;;;;;;;49.50;37.65;;;12.80;91.50;;;;;;4995582;28;20026;-83
2021/05/14 03:14:54;;;;;;;47.25;36.88;;;12.80;91.60;;;;;;4996710;28;20019;-83
2021/05/14 03:17:39;;;;;;;48.45;38.20;;;12.90;91.60;;;;;;4994495;28;20408;-83
2021/05/14 03:23:09;;;;;;;49.80;38.63;;;12.80;91.50;;;;;;4996255;28;20029;-82
2021/05/14 03:25:54;;;;;;;50.28;39.25;;;12.80;91.60;;;;;;4994710;28;20018;-83
2021/05/14 03:31:41;;;;;;;43.60;34.55;;;12.70;91.60;;;;;;4996527;28;20122;-83
2021/05/14 03:36:51;;;;;;;42.95;33.70;;;12.70;91.70;;;;;;4997494;28;20041;-84
2021/05/14 03:39:21;;;;;;;45.42;36.05;;;12.70;91.60;;;;;;4994846;28;20038;-82
2021/05/14 03:41:49;;;;;;;43.25;33.95;;;12.70;91.70;;;;;;5004067;28;20089;-82
2021/05/14 03:50:07;;;;;;;50.90;39.60;;;12.70;91.70;;;;;;4998047;28;20050;-82
2021/05/14 03:52:52;;;;;;;47.83;36.42;;;12.70;91.80;;;;;;4997068;28;20525;-82
2021/05/14 03:55:36;;;;;;;46.00;37.88;;;12.70;91.80;;;;;;4996661;28;20592;-83
2021/05/14 03:58:02;;;;;;;48.38;37.67;;;12.70;91.70;;;;;;4997469;28;20034;-85
2021/05/14 04:03:15;;;;;;;43.35;34.75;;;12.80;91.60;;;;;;4995290;28;20034;-84
2021/05/14 04:05:59;;;;;;;48.50;37.90;;;12.70;91.60;;;;;;4994697;28;20113;-83
2021/05/14 04:08:26;;;;;;;43.47;35.10;;;12.70;91.60;;;;;;4994617;28;20085;-84
2021/05/14 04:16:39;;;;;;;50.10;36.08;;;12.70;91.70;;;;;;4996335;28;20041;-83
2021/05/14 04:19:04;;;;;;;46.55;35.83;;;12.70;91.70;;;;;;4994473;28;20030;-83
2021/05/14 04:21:30;;;;;;;44.80;34.35;;;12.80;91.80;;;;;;4994761;28;20038;-82
2021/05/14 04:29:43;;;;;;;46.10;34.22;;;12.70;91.60;;;;;;5002343;28;20070;-82
2021/05/14 04:32:08;;;;;;;43.05;33.88;;;12.80;91.60;;;;;;4993462;28;20018;-82
2021/05/14 04:34:34;;;;;;;41.70;33.08;;;12.80;91.80;;;;;;4993682;28;20414;-83
2021/05/14 04:36:59;;;;;;;44.13;34.08;;;12.80;91.50;;;;;;4994108;28;20023;-82
2021/05/14 04:39:25;;;;;;;39.50;31.33;;;12.80;91.70;;;;;;4995872;28;20552;-83
2021/05/14 04:41:51;;;;;;;34.85;28.73;;;12.80;91.40;;;;;;4996183;28;20023;-82
2021/05/14 04:44:16;;;;;;;35.70;28.30;;;12.80;91.40;;;;;;4995299;28;20029;-83
2021/05/14 04:49:45;;;;;;;38.03;28.63;;;12.80;91.00;;;;;;4996102;28;20038;-83
2021/05/14 04:52:35;;;;;;;33.85;27.48;;;12.80;90.70;;;;;;4993435;28;20022;-84
2021/05/14 04:55:01;;;;;;;34.67;28.05;;;12.80;90.80;;;;;;4996262;28;20069;-84
2021/05/14 05:00:30;;;;;;;36.22;28.65;;;12.80;90.90;;;;;;5016702;28;20029;-83
2021/05/14 05:06:20;;;;;;;39.03;30.67;;;12.90;90.90;;;;;;5018880;28;20062;-84
2021/05/14 05:08:47;;;;;;;40.08;30.13;;;12.90;90.90;;;;;;5019936;28;20014;-82
2021/05/14 05:11:12;;;;;;;37.75;28.30;;;12.90;90.90;;;;;;5019360;28;20018;-84
2021/05/14 05:13:57;;;;;;;40.83;31.52;;;12.90;90.90;;;;;;5000798;28;20029;-82
2021/05/14 05:16:22;;;;;;;37.42;27.88;;;12.90;91.00;;;;;;4996030;28;20034;-82
2021/05/14 05:19:06;;;;;;;42.90;29.25;;;12.90;90.70;;;;;;4995901;28;20359;-83
2021/05/14 05:21:32;;;;;;;40.17;29.42;;;12.90;90.70;;;;;;4995731;28;20125;-83
2021/05/14 05:27:01;;;;;;;36.20;25.88;;;12.90;90.60;;;;;;4997152;28;20037;-82
2021/05/14 05:29:27;;;;;;;17.33;11.20;;;12.90;90.70;;;;;;4995918;28;20030;-82
2021/05/14 05:32:11;;;;;;;30.83;24.45;;;12.80;90.20;;;;;;4995615;28;20149;-82
2021/05/14 05:34:37;;;;;;;25.85;21.15;;;12.80;90.20;;;;;;4996102;28;20050;-82
2021/05/14 05:37:03;;;;;;;32.55;23.55;;;12.90;90.60;;;;;;5005310;28;20474;-83
2021/05/14 05:39:48;;;;;;;31.83;23.60;;;12.80;90.50;;;;;;5016144;28;20035;-83
2021/05/14 05:48:04;;;;;;;31.35;22.35;;;12.80;90.40;;;;;;4997152;28;20446;-83
2021/05/14 05:50:30;;;;;;;32.50;24.40;;;12.80;90.40;;;;;;4996477;28;20027;-81
2021/05/14 05:52:56;;;;;;;32.38;24.48;;;12.80;90.40;;;;;;4995930;28;20037;-82
2021/05/14 05:55:22;;;;;;;33.20;23.77;;;12.80;90.30;;;;;;4996750;28;20022;-81
2021/05/14 05:57:48;;;;;;;33.67;26.33;;;12.90;90.40;;;;;;4995199;28;20615;-83
2021/05/14 06:00:14;;;;;;;36.35;24.42;;;12.90;90.60;;;;;;4996338;28;20033;-81
2021/05/14 06:02:40;;;;;;;30.60;24.65;;;12.90;90.00;;;;;;4996302;28;20591;-83
2021/05/14 06:05:44;;;;;;;28.38;19.73;;;12.90;90.00;;;;;;4997351;28;20516;-82
2021/05/14 06:10:54;;;;;;;34.08;23.95;;;13.00;90.00;;;;;;4996288;28;20065;-82
2021/05/14 06:16:22;;;;;;;33.55;25.40;;;13.00;89.80;;;;;;4996175;28;20085;-81
2021/05/14 06:18:56;;;;;;;35.78;25.30;;;13.10;90.00;;;;;;4995706;28;20031;-81
2021/05/14 06:21:22;;;;;;;31.20;24.00;;;13.10;89.80;;;;;;4996458;28;20022;-81
2021/05/14 06:24:07;;;;;;;34.83;25.15;;;13.10;89.70;;;;;;4995015;28;20363;-81
2021/05/14 06:26:32;;;;;;;24.90;18.70;;;13.20;90.00;;;;;;4995907;28;20022;-81
2021/05/14 06:32:01;;;;;;;37.10;26.63;;;13.20;89.40;;;;;;4996791;28;20402;-81
2021/05/14 06:34:45;;;;;;;35.30;25.92;;;13.20;88.70;;;;;;4995322;28;20050;-80
2021/05/14 06:42:40;;;;;;;35.67;27.70;;;13.20;88.90;;;;;;4996537;28;20089;-82
2021/05/14 06:48:15;;;;;;;29.63;23.33;;;13.20;88.70;;;;;;4996264;28;20080;-82
2021/05/14 06:53:26;;;;;;;31.77;23.95;;;13.20;87.90;;;;;;4996530;28;20062;-81
2021/05/14 06:55:53;;;;;;;32.45;24.23;;;13.30;87.70;;;;;;4995553;28;20022;-82
2021/05/14 07:01:22;;;;;;;27.92;22.48;;;13.20;88.80;;;;;;4997606;28;20041;-81
2021/05/14 07:04:07;;;;;;;29.13;22.80;;;13.30;89.40;;;;;;5017182;28;20014;-82
2021/05/14 07:06:32;;;;;;;23.65;18.05;;;13.40;89.30;;;;;;5020590;28;20034;-79
2021/05/14 07:09:17;;;;;;;27.90;21.05;;;13.50;86.80;;;;;;5031933;28;20026;-80
2021/05/14 07:12:02;;;;;;;31.00;22.50;;;13.50;87.10;;;;;;5018803;28;20018;-81
2021/05/14 07:14:28;;;;;;;29.98;22.00;;;13.60;86.70;;;;;;5007239;28;20026;-80
2021/05/14 07:17:12;;;;;;;28.55;20.92;;;13.60;86.10;;;;;;5009254;28;20022;-80
2021/05/14 07:25:44;;;;;;;28.35;21.88;;;13.70;86.00;;;;;;4997032;28;20076;-81
2021/05/14 07:28:10;;;;;;;22.75;18.30;;;13.80;87.10;;;;;;4994826;28;20096;-82
2021/05/14 07:33:40;;;;;;;26.70;21.45;;;14.00;85.10;;;;;;5004165;28;20037;-82
2021/05/14 07:39:47;;;;;;;27.20;22.17;;;14.10;84.40;;;;;;5004040;28;20045;-81
2021/05/14 07:45:16;;;;;;;28.67;22.77;;;14.20;83.40;;;;;;4996699;28;20065;-82
2021/05/14 07:51:02;;;;;;;27.20;20.98;;;14.30;82.80;;;;;;4996122;28;20038;-82
2021/05/14 07:53:27;;;;;;;27.02;20.63;;;14.20;82.50;;;;;;4993311;28;20093;-83
2021/05/14 07:55:53;;;;;;;29.45;23.60;;;14.20;82.60;;;;;;4993922;28;20410;-82
2021/05/14 07:58:20;;;;;;;28.15;20.45;;;14.10;82.80;;;;;;4994925;28;20034;-81
2021/05/14 08:03:49;;;;;;;30.23;23.15;;;14.00;81.80;;;;;;4995905;28;20065;-81
2021/05/14 08:09:24;;;;;;;27.27;22.52;;;14.00;81.70;;;;;;4995095;28;20129;-81
2021/05/14 08:11:50;;;;;;;29.25;21.83;;;14.10;82.50;;;;;;5013225;28;20043;-81
2021/05/14 08:14:35;;;;;;;28.17;20.92;;;14.10;82.30;;;;;;5012230;28;20359;-81
2021/05/14 08:19:44;;;;;;;26.17;21.10;;;14.20;82.00;;;;;;5013361;28;20057;-82
2021/05/14 08:25:34;;;;;;;27.98;21.40;;;14.10;82.30;;;;;;5013325;28;20037;-82
2021/05/14 08:28:19;;;;;;;28.92;21.83;;;14.10;81.90;;;;;;5028543;28;20034;-82
2021/05/14 08:33:30;;;;;;;27.05;22.35;;;14.10;81.70;;;;;;5016866;28;20405;-81
2021/05/14 08:35:55;;;;;;;31.75;23.25;;;14.20;82.00;;;;;;5015434;28;20041;-79
2021/05/14 08:41:25;;;;;;;31.40;23.75;;;14.20;81.10;;;;;;5018949;28;20394;-82
2021/05/14 08:43:51;;;;;;;27.70;21.95;;;14.10;81.10;;;;;;5019079;28;20025;-81
2021/05/14 08:52:23;;;;;;;7.50;4.75;;;14.20;82.30;;;;;;5019436;28;20041;-80
2021/05/14 08:55:07;;;;;;;30.20;23.00;;;14.30;80.60;;;;;;5018057;28;20022;-81
2021/05/14 08:57:52;;;;;;;27.05;22.77;;;14.50;80.20;;;;;;5018765;28;20093;-82
2021/05/14 09:06:45;;;;;;;24.98;19.17;;;14.70;79.50;;;;;;5038005;28;20033;-81
2021/05/14 09:09:30;;;;;;;27.35;21.80;;;14.80;79.40;;;;;;5054527;28;20056;-80
2021/05/14 09:12:14;;;;;;;31.83;24.13;;;14.80;79.60;;;;;;5056377;28;20093;-81
2021/05/14 09:17:27;;;;;;;31.33;23.33;;;14.70;77.50;;;;;;5018457;28;20040;-82
2021/05/14 09:19:52;;;;;;;32.88;23.77;;;14.60;78.20;;;;;;5017565;28;20378;-80
2021/05/14 09:22:23;;;;;;;31.90;24.85;;;14.60;78.50;;;;;;5022742;28;20022;-79
2021/05/14 09:27:41;;;;;;;34.17;25.63;;;14.60;78.40;;;;;;5023725;28;20108;-80
2021/05/14 09:30:11;;;;;;;35.10;26.25;;;14.60;77.40;;;;;;5024499;28;20029;-84
2021/05/14 09:32:57;;;;;;;29.58;23.77;;;14.50;77.50;;;;;;5030708;28;20505;-81
2021/05/14 09:35:22;;;;;;;31.10;23.15;;;14.60;78.40;;;;;;5025745;28;20457;-81
2021/05/14 09:38:08;;;;;;;28.73;22.65;;;14.70;78.40;;;;;;5018173;28;20486;-81
2021/05/14 09:40:53;;;;;;;31.70;24.67;;;14.90;78.10;;;;;;5017389;28;20080;-81
2021/05/14 09:43:20;;;;;;;35.38;24.73;;;15.20;76.80;;;;;;5018367;28;20038;-81
2021/05/14 09:52:07;;;;;;;34.40;25.05;;;15.70;74.70;;;;;;5018331;28;20056;-80
2021/05/14 09:55:10;;;;;;;39.15;25.52;;;16.00;72.30;;;;;;5016289;28;20025;-81
2021/05/14 09:58:00;;;;;;;30.80;24.10;;;16.20;72.30;;;;;;5032457;28;20502;-81
2021/05/14 10:03:14;;;;;;;13.43;9.40;;;16.30;71.80;;;;;;5022759;28;19912;-81
2021/05/14 10:06:02;;;;;;;29.15;19.90;;;16.40;72.20;;;;;;5014916;28;20045;-78
2021/05/14 10:08:51;;;;;;;28.38;22.23;;;16.50;71.40;;;;;;5015011;28;20057;-79
2021/05/14 10:14:21;;;;;;;28.60;19.20;;;17.10;69.10;;;;;;5017125;28;20117;-82
2021/05/14 10:17:06;;;;;;;13.45;9.85;;;17.40;67.80;;;;;;5014938;28;20021;-80
2021/05/14 10:19:34;;;;;;;22.83;18.15;;;17.70;68.60;;;;;;5014919;28;20045;-80
2021/05/14 10:22:00;;;;;;;10.70;6.75;;;18.00;66.80;;;;;;5014723;28;20026;-79
2021/05/14 10:25:00;;;;;;;20.85;17.35;;;18.00;67.50;;;;;;5014190;28;20026;-77
2021/05/14 10:27:45;;;;;;;22.08;17.52;;;17.90;64.60;;;;;;5030304;28;20026;-78
2021/05/14 10:30:12;;;;;;;19.98;15.63;;;17.70;62.70;;;;;;5015339;28;20018;-80
2021/05/14 10:32:44;;;;;;;18.52;14.77;;;17.50;62.10;;;;;;5013336;28;20470;-78
2021/05/14 10:38:29;;;;;;;15.52;11.75;;;17.50;61.30;;;;;;5016813;28;20517;-80
2021/05/14 10:41:17;;;;;;;11.85;8.30;;;17.60;64.20;;;;;;5015931;28;20050;-78
2021/05/14 10:50:50;;;;;;;21.05;16.13;;;18.50;59.00;;;;;;5015431;28;20073;-80
2021/05/14 10:53:44;;;;;;;16.52;13.90;;;18.30;59.00;;;;;;5015359;28;20105;-83
2021/05/14 10:56:10;;;;;;;15.95;11.48;;;18.50;59.10;;;;;;5015535;28;20022;-83
2021/05/14 11:01:43;;;;;;;17.10;12.40;;;18.50;60.20;;;;;;5017764;28;20037;-83
2021/05/14 11:07:15;;;;;;;18.80;14.00;;;18.40;58.80;;;;;;5028906;28;20032;-81
2021/05/14 11:12:28;;;;;;;14.90;10.85;;;18.80;56.30;;;;;;5037823;28;20044;-81
2021/05/14 11:20:24;;;;;;;15.40;10.77;;;19.40;58.90;;;;;;5018032;28;20095;-83
2021/05/14 11:23:28;;;;;;;15.00;11.73;;;19.60;57.90;;;;;;5019289;28;20129;-82
2021/05/14 11:25:54;;;;;;;14.50;10.95;;;19.80;56.70;;;;;;5035424;28;20037;-80
2021/05/14 11:28:44;;;;;;;16.60;11.73;;;20.00;57.10;;;;;;5037060;28;20089;-80
2021/05/14 11:31:26;;;;;;;11.32;8.95;;;19.90;55.80;;;;;;5035833;28;20045;-79
2021/05/14 11:33:56;;;;;;;7.63;4.95;;;20.10;55.70;;;;;;5020380;28;20018;-80
2021/05/14 11:36:44;;;;;;;11.18;7.68;;;20.20;57.90;;;;;;5016358;28;20074;-81
2021/05/14 11:39:22;;;;;;;10.05;8.10;;;20.40;56.50;;;;;;5014608;28;20042;-82
2021/05/14 11:41:58;;;;;;;15.93;10.90;;;20.70;57.80;;;;;;5016357;28;20042;-81
2021/05/14 11:44:24;;;;;;;13.10;9.13;;;20.70;53.10;;;;;;5014065;28;20061;-82
2021/05/14 11:47:08;;;;;;;10.30;9.10;;;20.70;56.30;;;;;;5012831;28;20395;-80
2021/05/14 11:49:53;;;;;;;11.52;8.95;;;20.90;58.40;;;;;;5014225;28;20036;-81
2021/05/14 11:52:54;;;;;;;12.23;9.50;;;21.10;51.40;;;;;;5013273;28;20045;-82
2021/05/14 11:55:20;;;;;;;12.05;9.63;;;21.10;49.30;;;;;;5013682;28;20026;-81
2021/05/14 12:00:44;;;;;;;11.80;7.80;;;20.60;52.00;;;;;;5013916;28;20069;-81
2021/05/14 12:06:05;;;;;;;11.52;7.75;;;20.70;60.10;;;;;;5013991;28;20063;-81
2021/05/14 12:08:32;;;;;;;10.55;8.02;;;20.70;50.10;;;;;;5011898;28;20026;-80
2021/05/14 12:11:03;;;;;;;10.73;6.90;;;20.80;50.50;;;;;;5012452;28;20072;-80
2021/05/14 12:13:48;;;;;;;7.68;6.45;;;21.00;53.00;;;;;;5012548;28;20197;-81
2021/05/14 12:19:03;;;;;;;6.35;3.42;;;21.30;51.90;;;;;;5014639;28;20123;-80
2021/05/14 12:21:32;;;;;;;9.50;5.00;;;21.20;58.80;;;;;;5013636;28;20164;-81
2021/05/14 12:27:05;;;;;;;7.85;3.65;;;21.00;49.20;;;;;;5016283;28;20040;-79
2021/05/14 12:29:58;;;;;;;8.95;3.85;;;21.00;60.30;;;;;;5009828;28;20029;-81
2021/05/14 12:32:23;;;;;;;6.18;3.10;;;21.00;61.20;;;;;;5007689;28;20045;-80
2021/05/14 12:37:56;;;;;;;10.55;7.43;;;20.90;64.00;;;;;;5015037;28;20041;-79
2021/05/14 12:40:48;;;;;;;8.55;6.80;;;20.60;63.30;;;;;;5013418;28;20057;-82
2021/05/14 12:43:14;;;;;;;7.40;5.35;;;20.40;59.40;;;;;;5012606;28;20033;-79
2021/05/14 12:48:30;;;;;;;12.13;6.97;;;20.70;58.30;;;;;;5013790;28;20052;-80
2021/05/14 12:51:20;;;;;;;12.55;7.47;;;20.90;50.00;;;;;;5012341;28;20041;-79
2021/05/14 12:54:24;;;;;;;9.23;6.93;;;21.10;49.50;;;;;;5012110;28;20048;-78
2021/05/14 12:56:49;;;;;;;10.77;6.45;;;21.30;50.40;;;;;;5012362;28;20386;-80
2021/05/14 12:59:36;;;;;;;6.93;4.93;;;21.30;49.40;;;;;;5012495;28;20036;-80
2021/05/14 13:02:02;;;;;;;7.47;4.35;;;21.10;45.60;;;;;;5013751;28;20030;-81
2021/05/14 13:04:54;;;;;;;8.52;4.22;;;20.90;47.90;;;;;;5017696;28;20032;-81
2021/05/14 13:07:57;;;;;;;7.18;5.00;;;20.90;46.00;;;;;;5025633;28;20231;-81
2021/05/14 13:10:46;;;;;;;9.25;6.93;;;20.70;47.80;;;;;;5032655;28;20026;-80
2021/05/14 13:13:13;;;;;;;9.70;6.28;;;20.70;48.60;;;;;;5033277;28;20017;-81
2021/05/14 13:16:16;;;;;;;6.65;3.80;;;21.00;49.60;;;;;;5034988;28;20042;-81
2021/05/14 13:19:01;;;;;;;3.53;1.85;;;21.20;58.80;;;;;;5033933;28;20034;-80
2021/05/14 13:21:27;;;;;;;9.20;3.85;;;21.70;58.50;;;;;;5016259;28;20038;-81
2021/05/14 13:26:38;;;;;;;9.45;4.97;;;22.10;58.40;;;;;;4996857;28;20037;-80
2021/05/14 13:29:23;;;;;;;9.18;6.00;;;22.20;55.70;;;;;;4997909;28;20026;-82
2021/05/14 13:31:48;;;;;;;6.47;3.42;;;22.10;56.60;;;;;;4999387;28;20034;-80
2021/05/14 13:40:03;;;;;;;6.10;3.65;;;22.30;41.80;;;;;;5005428;28;20080;-80
2021/05/14 13:42:30;;;;;;;5.53;3.53;;;22.40;52.10;;;;;;4998971;28;20050;-80
2021/05/14 13:45:33;;;;;;;9.10;2.45;;;22.40;53.00;;;;;;4998942;28;20029;-80
2021/05/14 13:48:03;;;;;;;7.82;4.63;;;22.20;57.60;;;;;;4995771;28;20121;-79
2021/05/14 13:50:47;;;;;;;4.85;2.63;;;22.10;44.80;;;;;;4996026;28;20026;-79
2021/05/14 13:53:14;;;;;;;9.50;4.72;;;21.80;55.30;;;;;;4996998;28;20455;-80
2021/05/14 13:55:58;;;;;;;6.30;3.33;;;21.60;45.30;;;;;;4994713;28;20027;-80
2021/05/14 13:58:43;;;;;;;6.20;3.00;;;21.30;47.60;;;;;;4994840;28;20053;-80
2021/05/14 14:01:27;;;;;;;5.78;2.45;;;21.00;53.30;;;;;;4995323;28;20037;-80
2021/05/14 14:09:21;;;;;;;7.78;4.25;;;20.50;51.90;;;;;;4996021;28;20085;-79
2021/05/14 14:15:12;;;;;;;4.45;2.00;;;20.30;54.70;;;;;;4996434;28;20120;-80
2021/05/14 14:20:42;;;;;;;8.98;4.80;;;20.30;50.60;;;;;;4995955;28;20037;-79
2021/05/14 14:23:08;;;;;;;6.20;3.63;;;20.40;46.00;;;;;;4996978;28;20026;-80
2021/05/14 14:28:18;;;;;;;6.70;3.85;;;20.40;46.40;;;;;;4995913;28;20038;-77
2021/05/14 14:34:25;;;;;;;6.50;3.17;;;20.40;60.30;;;;;;5011126;28;20040;-80
2021/05/14 14:36:50;;;;;;;3.58;2.03;;;20.70;46.10;;;;;;5014735;28;20033;-80
2021/05/14 14:39:16;;;;;;;5.68;3.30;;;20.80;55.20;;;;;;5015125;28;20026;-79
2021/05/14 14:45:03;;;;;;;5.03;2.38;;;20.90;55.10;;;;;;5016759;28;20057;-81
2021/05/14 14:47:29;;;;;;;7.15;3.30;;;21.00;53.90;;;;;;5013830;28;20018;-80
2021/05/14 14:52:58;;;;;;;7.45;3.88;;;21.20;48.40;;;;;;5014962;28;20033;-80
2021/05/14 14:58:08;;;;;;;4.53;1.80;;;21.30;44.60;;;;;;5015994;28;20068;-79
2021/05/14 15:00:52;;;;;;;2.75;1.38;;;21.50;55.10;;;;;;5016415;28;20486;-80
2021/05/14 15:03:37;;;;;;;4.70;2.20;;;21.50;56.50;;;;;;5014967;28;20026;-79
2021/05/14 15:06:21;;;;;;;1.92;0.90;;;21.60;55.70;;;;;;5017478;28;20034;-79
2021/05/14 15:12:08;;;;;;;2.25;0.80;;;21.90;57.70;;;;;;5036167;28;20036;-80
2021/05/14 15:20:24;;;;;;;3.60;1.00;;;21.80;58.20;;;;;;5017665;28;20084;-81
2021/05/14 15:26:11;;;;;;;4.78;1.02;;;21.80;58.70;;;;;;5015572;28;20180;-79
2021/05/14 15:32:37;;;;;;;4.18;0.95;;;21.60;58.50;;;;;;5015228;28;20084;-81
2021/05/14 15:35:32;;;;;;;1.23;0.77;;;21.70;58.40;;;;;;5014456;28;20060;-79
2021/05/14 15:37:57;;;;;;;2.47;0.95;;;21.60;58.10;;;;;;5015591;28;20038;-79
2021/05/14 15:43:27;;;;;;;5.53;0.82;;;21.50;57.00;;;;;;5036001;28;20040;-79
2021/05/14 15:45:54;;;;;;;3.00;0.95;;;21.30;58.20;;;;;;5014002;28;20022;-80
2021/05/14 15:48:19;;;;;;;2.30;0.95;;;21.10;59.10;;;;;;5013181;28;20450;-79
2021/05/14 15:50:46;;;;;;;2.05;0.60;;;20.90;59.00;;;;;;5012569;28;20041;-81
2021/05/14 15:53:13;;;;;;;4.03;1.02;;;20.60;60.10;;;;;;5014420;28;20594;-78
2021/05/14 15:55:58;;;;;;;5.57;1.95;;;20.30;61.30;;;;;;5012788;28;20033;-78
2021/05/14 15:58:23;;;;;;;4.72;1.85;;;20.10;50.90;;;;;;5013362;28;20137;-80
2021/05/14 16:00:50;;;;;;;4.03;1.20;;;19.90;44.80;;;;;;5012732;28;20072;-77
2021/05/14 16:03:53;;;;;;;4.05;1.45;;;19.80;52.90;;;;;;5012644;28;20030;-80
2021/05/14 16:06:19;;;;;;;4.53;1.40;;;19.70;46.70;;;;;;5012771;28;20482;-79
2021/05/14 16:08:44;;;;;;;4.65;1.60;;;19.60;45.70;;;;;;5012876;28;20022;-78
2021/05/14 16:11:10;;;;;;;4.43;1.40;;;19.60;45.20;;;;;;5013007;28;20481;-81
2021/05/14 16:13:36;;;;;;;3.65;0.60;;;19.50;43.00;;;;;;5015508;28;20033;-81
2021/05/14 16:16:01;;;;;;;4.55;0.98;;;19.40;49.20;;;;;;5012995;28;20030;-80
2021/05/14 16:18:50;;;;;;;2.80;1.08;;;19.30;43.80;;;;;;5015470;28;20025;-80
2021/05/14 16:21:16;;;;;;;3.28;1.10;;;19.20;43.80;;;;;;5015738;28;20133;-79
2021/05/14 16:23:42;;;;;;;3.80;1.40;;;19.10;43.30;;;;;;5014454;28;20490;-79
2021/05/14 16:26:08;;;;;;;4.47;1.52;;;19.00;44.20;;;;;;5016288;28;20584;-79
2021/05/14 16:40:09;;;;;;;4.82;1.77;;;18.70;45.30;;;;;;5016977;28;20049;-79
2021/05/14 16:42:53;;;;;;;4.93;1.42;;;18.70;44.60;;;;;;5015083;28;20022;-79
2021/05/14 16:48:22;;;;;;;5.72;1.95;;;18.60;45.80;;;;;;5015057;28;20533;-79
2021/05/14 16:50:48;;;;;;;4.80;2.00;;;18.50;49.90;;;;;;5015315;28;20036;-79
2021/05/14 16:56:35;;;;;;;5.10;2.22;;;18.30;48.20;;;;;;5019190;28;20080;-80
2021/05/14 16:59:01;;;;;;;6.63;2.38;;;18.20;49.10;;;;;;5018470;28;20280;-80
2021/05/14 17:01:27;;;;;;;7.32;2.20;;;18.20;49.20;;;;;;5020958;28;20080;-79
2021/05/14 17:03:52;;;;;;;5.07;2.00;;;18.20;49.70;;;;;;5031905;28;20026;-80
2021/05/14 17:06:50;;;;;;;6.15;2.60;;;18.20;53.30;;;;;;5035050;28;20030;-79
2021/05/14 17:09:17;;;;;;;6.30;2.58;;;18.10;50.00;;;;;;5034646;28;20014;-79
2021/05/14 17:11:44;;;;;;;5.80;2.35;;;18.00;50.50;;;;;;5034421;28;20030;-78
2021/05/14 17:14:29;;;;;;;6.45;3.08;;;18.00;50.50;;;;;;5034340;28;20040;-79
2021/05/14 17:16:55;;;;;;;7.80;3.08;;;18.00;50.60;;;;;;5034973;28;20033;-79
2021/05/14 17:19:21;;;;;;;9.48;3.65;;;18.00;52.20;;;;;;5025665;28;20041;-80
2021/05/14 17:22:06;;;;;;;8.93;3.55;;;18.00;52.10;;;;;;5018689;28;20041;-79
2021/05/14 17:27:36;;;;;;;8.23;3.92;;;17.90;53.40;;;;;;5028252;28;20128;-79
2021/05/14 17:30:02;;;;;;;7.63;4.65;;;17.80;53.80;;;;;;5016825;28;20031;-77
2021/05/14 17:38:15;;;;;;;13.43;8.02;;;17.40;58.70;;;;;;5017444;28;20049;-77
2021/05/14 17:43:25;;;;;;;13.13;7.75;;;17.20;60.20;;;;;;5019388;28;20056;-79
2021/05/14 17:46:15;;;;;;;15.45;7.88;;;17.10;60.40;;;;;;5018894;28;20522;-78
2021/05/14 17:48:40;;;;;;;9.52;6.35;;;16.90;61.00;;;;;;5032121;28;20034;-78
2021/05/14 17:51:06;;;;;;;13.02;7.55;;;16.70;62.00;;;;;;5017865;28;20030;-78
2021/05/14 17:56:54;;;;;;;13.18;7.25;;;16.50;63.50;;;;;;5016406;28;20072;-78
2021/05/14 17:59:19;;;;;;;9.63;6.82;;;16.30;63.70;;;;;;5015768;28;20034;-77
2021/05/14 18:04:29;;;;;;;9.23;7.10;;;16.20;64.60;;;;;;5026752;28;20040;-78
2021/05/14 18:07:13;;;;;;;14.02;8.75;;;16.10;64.80;;;;;;5018527;28;20054;-77
2021/05/14 18:12:42;;;;;;;12.82;7.40;;;16.10;65.10;;;;;;5016805;28;20386;-77
2021/05/14 18:15:26;;;;;;;9.00;6.68;;;16.00;65.80;;;;;;5016332;28;20025;-79
2021/05/14 18:24:23;;;;;;;10.88;6.85;;;15.90;66.20;;;;;;5016928;28;20513;-77
2021/05/14 18:29:52;;;;;;;11.93;7.32;;;15.60;67.10;;;;;;5015699;28;20457;-77
2021/05/14 18:32:36;;;;;;;14.38;7.47;;;15.60;67.50;;;;;;5016544;28;20022;-79
2021/05/14 18:35:21;;;;;;;11.23;6.85;;;15.50;67.70;;;;;;5015673;28;20096;-78
2021/05/14 18:38:05;;;;;;;11.55;6.47;;;15.50;67.90;;;;;;5015296;28;20049;-78